sensor_id;sensor_type;location;lat;lon;timestamp;P1;durP1;ratioP1;P2;durP2;ratioP2
48743;SDS011;34538;48.836;9.174;2023-01-28T00:01:06;5.85;;;3.33;;
48743;SDS011;34538;48.836;9.174;2023-01-28T00:03:34;6.72;;;3.70;;
48743;SDS011;34538;48.836;9.174;2023-01-28T00:06:02;8.13;;;4.18;;
48743;SDS011;34538;48.836;9.174;2023-01-28T00:08:30;5.93;;;3.83;;
48743;SDS011;34538;48.836;9.174;2023-01-28T00:10:58;6.97;;;3.55;;
48743;SDS011;34538;48.836;9.174;2023-01-28T00:13:25;6.70;;;3.65;;
48743;SDS011;34538;48.836;9.174;2023-01-28T00:15:55;5.60;;;3.42;;
48743;SDS011;34538;48.836;9.174;2023-01-28T00:18:23;6.55;;;3.65;;
48743;SDS011;34538;48.836;9.174;2023-01-28T00:20:58;7.22;;;3.70;;
48743;SDS011;34538;48.836;9.174;2023-01-28T00:23:26;7.43;;;3.88;;
48743;SDS011;34538;48.836;9.174;2023-01-28T00:25:56;5.93;;;3.58;;
48743;SDS011;34538;48.836;9.174;2023-01-28T00:28:23;6.05;;;3.30;;
48743;SDS011;34538;48.836;9.174;2023-01-28T00:30:50;7.40;;;3.50;;
48743;SDS011;34538;48.836;9.174;2023-01-28T00:33:17;6.25;;;3.17;;
48743;SDS011;34538;48.836;9.174;2023-01-28T00:35:45;7.13;;;3.53;;
48743;SDS011;34538;48.836;9.174;2023-01-28T00:38:14;7.10;;;3.63;;
48743;SDS011;34538;48.836;9.174;2023-01-28T00:40:41;6.25;;;2.95;;
48743;SDS011;34538;48.836;9.174;2023-01-28T00:43:08;6.40;;;3.72;;
48743;SDS011;34538;48.836;9.174;2023-01-28T00:45:35;6.53;;;3.78;;
48743;SDS011;34538;48.836;9.174;2023-01-28T00:48:03;7.05;;;3.40;;
48743;SDS011;34538;48.836;9.174;2023-01-28T00:50:30;7.43;;;3.90;;
48743;SDS011;34538;48.836;9.174;2023-01-28T00:52:57;8.95;;;4.05;;
48743;SDS011;34538;48.836;9.174;2023-01-28T00:55:25;6.20;;;3.13;;
48743;SDS011;34538;48.836;9.174;2023-01-28T00:57:52;6.40;;;3.60;;
48743;SDS011;34538;48.836;9.174;2023-01-28T01:00:19;6.40;;;3.63;;
48743;SDS011;34538;48.836;9.174;2023-01-28T01:02:49;6.35;;;3.75;;
48743;SDS011;34538;48.836;9.174;2023-01-28T01:05:16;5.55;;;3.17;;
48743;SDS011;34538;48.836;9.174;2023-01-28T01:07:43;5.35;;;2.83;;
48743;SDS011;34538;48.836;9.174;2023-01-28T01:10:11;6.40;;;3.30;;
48743;SDS011;34538;48.836;9.174;2023-01-28T01:12:41;5.45;;;2.95;;
48743;SDS011;34538;48.836;9.174;2023-01-28T01:15:08;6.75;;;3.75;;
48743;SDS011;34538;48.836;9.174;2023-01-28T01:17:36;5.95;;;3.10;;
48743;SDS011;34538;48.836;9.174;2023-01-28T01:20:06;6.03;;;3.08;;
48743;SDS011;34538;48.836;9.174;2023-01-28T01:22:35;5.93;;;2.90;;
48743;SDS011;34538;48.836;9.174;2023-01-28T01:25:02;7.18;;;3.35;;
48743;SDS011;34538;48.836;9.174;2023-01-28T01:27:30;7.35;;;3.35;;
48743;SDS011;34538;48.836;9.174;2023-01-28T01:29:58;5.97;;;3.35;;
48743;SDS011;34538;48.836;9.174;2023-01-28T01:32:28;5.65;;;3.25;;
48743;SDS011;34538;48.836;9.174;2023-01-28T01:34:55;5.93;;;3.10;;
48743;SDS011;34538;48.836;9.174;2023-01-28T01:37:23;6.60;;;3.38;;
48743;SDS011;34538;48.836;9.174;2023-01-28T01:39:50;5.38;;;2.75;;
48743;SDS011;34538;48.836;9.174;2023-01-28T01:42:17;5.00;;;2.50;;
48743;SDS011;34538;48.836;9.174;2023-01-28T01:44:59;4.10;;;2.83;;
48743;SDS011;34538;48.836;9.174;2023-01-28T01:47:30;5.05;;;3.05;;
48743;SDS011;34538;48.836;9.174;2023-01-28T01:50:01;6.53;;;3.15;;
48743;SDS011;34538;48.836;9.174;2023-01-28T01:52:32;5.32;;;3.00;;
48743;SDS011;34538;48.836;9.174;2023-01-28T01:55:00;5.57;;;3.15;;
48743;SDS011;34538;48.836;9.174;2023-01-28T01:57:33;7.47;;;3.30;;
48743;SDS011;34538;48.836;9.174;2023-01-28T02:00:03;7.30;;;3.22;;
48743;SDS011;34538;48.836;9.174;2023-01-28T02:02:40;5.53;;;2.88;;
48743;SDS011;34538;48.836;9.174;2023-01-28T02:05:09;5.28;;;2.88;;
48743;SDS011;34538;48.836;9.174;2023-01-28T02:07:38;5.40;;;2.95;;
48743;SDS011;34538;48.836;9.174;2023-01-28T02:10:06;5.03;;;2.88;;
48743;SDS011;34538;48.836;9.174;2023-01-28T02:12:34;5.65;;;2.85;;
48743;SDS011;34538;48.836;9.174;2023-01-28T02:15:07;4.20;;;2.53;;
48743;SDS011;34538;48.836;9.174;2023-01-28T02:17:35;5.68;;;2.88;;
48743;SDS011;34538;48.836;9.174;2023-01-28T02:20:04;4.07;;;2.47;;
48743;SDS011;34538;48.836;9.174;2023-01-28T02:28:50;4.95;;;2.60;;
48743;SDS011;34538;48.836;9.174;2023-01-28T02:31:22;5.45;;;2.65;;
48743;SDS011;34538;48.836;9.174;2023-01-28T02:33:55;5.18;;;2.78;;
48743;SDS011;34538;48.836;9.174;2023-01-28T02:36:29;6.03;;;3.00;;
48743;SDS011;34538;48.836;9.174;2023-01-28T02:39:02;4.50;;;2.83;;
48743;SDS011;34538;48.836;9.174;2023-01-28T02:41:38;7.85;;;3.30;;
48743;SDS011;34538;48.836;9.174;2023-01-28T02:44:10;5.70;;;3.00;;
48743;SDS011;34538;48.836;9.174;2023-01-28T02:46:37;5.93;;;3.08;;
48743;SDS011;34538;48.836;9.174;2023-01-28T02:49:24;5.63;;;2.72;;
48743;SDS011;34538;48.836;9.174;2023-01-28T02:52:10;5.43;;;2.88;;
48743;SDS011;34538;48.836;9.174;2023-01-28T02:55:12;4.63;;;2.80;;
48743;SDS011;34538;48.836;9.174;2023-01-28T02:57:47;5.40;;;3.15;;
48743;SDS011;34538;48.836;9.174;2023-01-28T03:00:24;4.68;;;2.95;;
48743;SDS011;34538;48.836;9.174;2023-01-28T03:02:57;5.70;;;3.22;;
48743;SDS011;34538;48.836;9.174;2023-01-28T03:05:30;5.55;;;2.90;;
48743;SDS011;34538;48.836;9.174;2023-01-28T03:08:02;5.43;;;3.15;;
48743;SDS011;34538;48.836;9.174;2023-01-28T03:10:50;5.97;;;3.10;;
48743;SDS011;34538;48.836;9.174;2023-01-28T03:13:38;5.90;;;3.20;;
48743;SDS011;34538;48.836;9.174;2023-01-28T03:16:26;5.68;;;3.05;;
48743;SDS011;34538;48.836;9.174;2023-01-28T03:19:13;6.90;;;3.08;;
48743;SDS011;34538;48.836;9.174;2023-01-28T03:22:00;5.32;;;2.92;;
48743;SDS011;34538;48.836;9.174;2023-01-28T03:24:47;5.75;;;3.30;;
48743;SDS011;34538;48.836;9.174;2023-01-28T03:27:36;5.93;;;3.33;;
48743;SDS011;34538;48.836;9.174;2023-01-28T03:30:28;5.80;;;3.25;;
48743;SDS011;34538;48.836;9.174;2023-01-28T03:33:26;8.52;;;4.40;;
48743;SDS011;34538;48.836;9.174;2023-01-28T03:36:12;7.57;;;3.63;;
48743;SDS011;34538;48.836;9.174;2023-01-28T03:38:57;6.95;;;4.15;;
48743;SDS011;34538;48.836;9.174;2023-01-28T03:41:24;7.63;;;4.07;;
48743;SDS011;34538;48.836;9.174;2023-01-28T03:43:54;10.30;;;4.80;;
48743;SDS011;34538;48.836;9.174;2023-01-28T03:46:21;8.32;;;5.05;;
48743;SDS011;34538;48.836;9.174;2023-01-28T03:48:48;9.60;;;4.80;;
48743;SDS011;34538;48.836;9.174;2023-01-28T03:51:15;9.27;;;5.05;;
48743;SDS011;34538;48.836;9.174;2023-01-28T03:53:42;7.70;;;4.55;;
48743;SDS011;34538;48.836;9.174;2023-01-28T03:56:09;9.60;;;4.47;;
48743;SDS011;34538;48.836;9.174;2023-01-28T03:58:42;10.05;;;4.75;;
48743;SDS011;34538;48.836;9.174;2023-01-28T04:01:17;7.82;;;4.47;;
48743;SDS011;34538;48.836;9.174;2023-01-28T04:03:44;9.02;;;5.30;;
48743;SDS011;34538;48.836;9.174;2023-01-28T04:06:16;8.45;;;4.80;;
48743;SDS011;34538;48.836;9.174;2023-01-28T04:08:53;9.93;;;5.25;;
48743;SDS011;34538;48.836;9.174;2023-01-28T04:11:40;10.05;;;5.10;;
48743;SDS011;34538;48.836;9.174;2023-01-28T04:14:08;9.27;;;5.40;;
48743;SDS011;34538;48.836;9.174;2023-01-28T04:16:46;9.40;;;5.47;;
48743;SDS011;34538;48.836;9.174;2023-01-28T04:19:14;8.38;;;4.95;;
48743;SDS011;34538;48.836;9.174;2023-01-28T04:21:43;8.85;;;4.97;;
48743;SDS011;34538;48.836;9.174;2023-01-28T04:24:11;8.63;;;5.07;;
48743;SDS011;34538;48.836;9.174;2023-01-28T04:26:39;10.48;;;5.60;;
48743;SDS011;34538;48.836;9.174;2023-01-28T04:29:06;10.98;;;5.55;;
48743;SDS011;34538;48.836;9.174;2023-01-28T04:31:35;9.65;;;5.65;;
48743;SDS011;34538;48.836;9.174;2023-01-28T04:34:20;8.10;;;5.10;;
48743;SDS011;34538;48.836;9.174;2023-01-28T04:37:04;8.57;;;5.43;;
48743;SDS011;34538;48.836;9.174;2023-01-28T04:39:42;8.52;;;4.82;;
48743;SDS011;34538;48.836;9.174;2023-01-28T04:42:20;9.82;;;5.85;;
48743;SDS011;34538;48.836;9.174;2023-01-28T04:45:10;10.18;;;5.10;;
48743;SDS011;34538;48.836;9.174;2023-01-28T04:47:56;9.80;;;5.30;;
48743;SDS011;34538;48.836;9.174;2023-01-28T04:50:42;8.38;;;4.75;;
48743;SDS011;34538;48.836;9.174;2023-01-28T04:53:34;6.93;;;3.42;;
48743;SDS011;34538;48.836;9.174;2023-01-28T04:56:06;9.07;;;5.32;;
48743;SDS011;34538;48.836;9.174;2023-01-28T04:58:34;12.68;;;6.05;;
48743;SDS011;34538;48.836;9.174;2023-01-28T05:01:05;7.97;;;5.13;;
48743;SDS011;34538;48.836;9.174;2023-01-28T05:03:32;9.15;;;5.75;;
48743;SDS011;34538;48.836;9.174;2023-01-28T05:06:00;9.90;;;5.60;;
48743;SDS011;34538;48.836;9.174;2023-01-28T05:08:50;10.90;;;5.18;;
48743;SDS011;34538;48.836;9.174;2023-01-28T05:11:17;9.48;;;4.90;;
48743;SDS011;34538;48.836;9.174;2023-01-28T05:13:48;10.65;;;6.00;;
48743;SDS011;34538;48.836;9.174;2023-01-28T05:16:17;10.52;;;5.25;;
48743;SDS011;34538;48.836;9.174;2023-01-28T05:18:44;11.32;;;5.70;;
48743;SDS011;34538;48.836;9.174;2023-01-28T05:21:16;10.20;;;5.85;;
48743;SDS011;34538;48.836;9.174;2023-01-28T05:23:46;10.10;;;6.05;;
48743;SDS011;34538;48.836;9.174;2023-01-28T05:26:15;10.07;;;5.90;;
48743;SDS011;34538;48.836;9.174;2023-01-28T05:28:47;10.10;;;5.35;;
48743;SDS011;34538;48.836;9.174;2023-01-28T05:31:15;10.98;;;5.88;;
48743;SDS011;34538;48.836;9.174;2023-01-28T05:33:42;9.75;;;4.97;;
48743;SDS011;34538;48.836;9.174;2023-01-28T05:36:11;9.52;;;4.93;;
48743;SDS011;34538;48.836;9.174;2023-01-28T05:38:39;8.50;;;5.05;;
48743;SDS011;34538;48.836;9.174;2023-01-28T05:41:05;9.30;;;4.97;;
48743;SDS011;34538;48.836;9.174;2023-01-28T05:43:35;8.75;;;5.03;;
48743;SDS011;34538;48.836;9.174;2023-01-28T05:46:14;8.68;;;4.78;;
48743;SDS011;34538;48.836;9.174;2023-01-28T05:49:04;8.77;;;4.32;;
48743;SDS011;34538;48.836;9.174;2023-01-28T05:51:51;8.45;;;4.85;;
48743;SDS011;34538;48.836;9.174;2023-01-28T05:54:21;9.93;;;4.85;;
48743;SDS011;34538;48.836;9.174;2023-01-28T05:56:48;9.93;;;5.63;;
48743;SDS011;34538;48.836;9.174;2023-01-28T05:59:17;9.25;;;4.63;;
48743;SDS011;34538;48.836;9.174;2023-01-28T06:01:46;10.93;;;5.43;;
48743;SDS011;34538;48.836;9.174;2023-01-28T06:04:13;8.80;;;4.60;;
48743;SDS011;34538;48.836;9.174;2023-01-28T06:06:43;10.32;;;5.38;;
48743;SDS011;34538;48.836;9.174;2023-01-28T06:09:09;8.80;;;4.82;;
48743;SDS011;34538;48.836;9.174;2023-01-28T06:11:36;9.43;;;4.90;;
48743;SDS011;34538;48.836;9.174;2023-01-28T06:14:04;9.38;;;4.95;;
48743;SDS011;34538;48.836;9.174;2023-01-28T06:17:11;9.23;;;4.82;;
48743;SDS011;34538;48.836;9.174;2023-01-28T06:19:57;10.02;;;5.47;;
48743;SDS011;34538;48.836;9.174;2023-01-28T06:22:24;10.25;;;5.68;;
48743;SDS011;34538;48.836;9.174;2023-01-28T06:24:51;9.00;;;4.90;;
48743;SDS011;34538;48.836;9.174;2023-01-28T06:27:18;10.50;;;5.60;;
48743;SDS011;34538;48.836;9.174;2023-01-28T06:29:45;9.30;;;5.25;;
48743;SDS011;34538;48.836;9.174;2023-01-28T06:32:13;11.15;;;5.60;;
48743;SDS011;34538;48.836;9.174;2023-01-28T06:34:40;9.98;;;5.20;;
48743;SDS011;34538;48.836;9.174;2023-01-28T06:37:07;11.65;;;6.25;;
48743;SDS011;34538;48.836;9.174;2023-01-28T06:39:34;12.45;;;6.20;;
48743;SDS011;34538;48.836;9.174;2023-01-28T06:42:00;8.82;;;5.28;;
48743;SDS011;34538;48.836;9.174;2023-01-28T06:44:27;10.07;;;5.38;;
48743;SDS011;34538;48.836;9.174;2023-01-28T06:46:54;11.20;;;5.53;;
48743;SDS011;34538;48.836;9.174;2023-01-28T06:49:22;9.00;;;5.10;;
48743;SDS011;34538;48.836;9.174;2023-01-28T06:51:49;10.18;;;5.03;;
48743;SDS011;34538;48.836;9.174;2023-01-28T06:54:16;10.73;;;5.32;;
48743;SDS011;34538;48.836;9.174;2023-01-28T06:56:43;10.75;;;5.22;;
48743;SDS011;34538;48.836;9.174;2023-01-28T06:59:10;10.85;;;5.50;;
48743;SDS011;34538;48.836;9.174;2023-01-28T07:01:37;9.75;;;5.35;;
48743;SDS011;34538;48.836;9.174;2023-01-28T07:04:04;11.77;;;5.63;;
48743;SDS011;34538;48.836;9.174;2023-01-28T07:06:32;9.95;;;5.43;;
48743;SDS011;34538;48.836;9.174;2023-01-28T07:08:59;9.10;;;4.82;;
48743;SDS011;34538;48.836;9.174;2023-01-28T07:11:26;10.05;;;5.53;;
48743;SDS011;34538;48.836;9.174;2023-01-28T07:13:53;9.93;;;5.53;;
48743;SDS011;34538;48.836;9.174;2023-01-28T07:16:20;8.75;;;4.97;;
48743;SDS011;34538;48.836;9.174;2023-01-28T07:18:47;10.05;;;5.35;;
48743;SDS011;34538;48.836;9.174;2023-01-28T07:21:14;9.63;;;5.65;;
48743;SDS011;34538;48.836;9.174;2023-01-28T07:23:43;11.32;;;5.25;;
48743;SDS011;34538;48.836;9.174;2023-01-28T07:26:09;10.60;;;5.25;;
48743;SDS011;34538;48.836;9.174;2023-01-28T07:28:36;9.70;;;5.47;;
48743;SDS011;34538;48.836;9.174;2023-01-28T07:31:03;10.07;;;5.15;;
48743;SDS011;34538;48.836;9.174;2023-01-28T07:33:30;11.00;;;5.50;;
48743;SDS011;34538;48.836;9.174;2023-01-28T07:35:57;9.85;;;5.43;;
48743;SDS011;34538;48.836;9.174;2023-01-28T07:38:24;10.23;;;5.55;;
48743;SDS011;34538;48.836;9.174;2023-01-28T07:40:52;9.80;;;5.53;;
48743;SDS011;34538;48.836;9.174;2023-01-28T07:43:19;10.63;;;5.95;;
48743;SDS011;34538;48.836;9.174;2023-01-28T07:45:48;10.35;;;5.65;;
48743;SDS011;34538;48.836;9.174;2023-01-28T07:48:15;12.35;;;6.50;;
48743;SDS011;34538;48.836;9.174;2023-01-28T07:50:41;10.65;;;6.15;;
48743;SDS011;34538;48.836;9.174;2023-01-28T07:53:09;11.57;;;5.97;;
48743;SDS011;34538;48.836;9.174;2023-01-28T07:55:36;16.48;;;7.78;;
48743;SDS011;34538;48.836;9.174;2023-01-28T07:58:06;17.40;;;9.73;;
48743;SDS011;34538;48.836;9.174;2023-01-28T08:00:34;16.83;;;8.75;;
48743;SDS011;34538;48.836;9.174;2023-01-28T08:03:02;15.57;;;8.60;;
48743;SDS011;34538;48.836;9.174;2023-01-28T08:05:31;13.80;;;6.63;;
48743;SDS011;34538;48.836;9.174;2023-01-28T08:08:05;33.35;;;14.43;;
48743;SDS011;34538;48.836;9.174;2023-01-28T08:10:32;16.60;;;8.27;;
48743;SDS011;34538;48.836;9.174;2023-01-28T08:12:59;13.27;;;6.80;;
48743;SDS011;34538;48.836;9.174;2023-01-28T08:15:27;23.88;;;11.90;;
48743;SDS011;34538;48.836;9.174;2023-01-28T08:17:55;32.60;;;15.00;;
48743;SDS011;34538;48.836;9.174;2023-01-28T08:20:23;35.10;;;15.93;;
48743;SDS011;34538;48.836;9.174;2023-01-28T08:22:51;32.45;;;14.80;;
48743;SDS011;34538;48.836;9.174;2023-01-28T08:25:18;41.58;;;16.60;;
48743;SDS011;34538;48.836;9.174;2023-01-28T08:27:45;44.05;;;18.17;;
48743;SDS011;34538;48.836;9.174;2023-01-28T08:30:12;49.00;;;20.40;;
48743;SDS011;34538;48.836;9.174;2023-01-28T08:32:40;20.88;;;10.23;;
48743;SDS011;34538;48.836;9.174;2023-01-28T08:35:07;17.83;;;9.18;;
48743;SDS011;34538;48.836;9.174;2023-01-28T08:37:34;24.40;;;11.90;;
48743;SDS011;34538;48.836;9.174;2023-01-28T08:40:01;13.93;;;8.10;;
48743;SDS011;34538;48.836;9.174;2023-01-28T08:42:28;17.65;;;9.32;;
48743;SDS011;34538;48.836;9.174;2023-01-28T08:44:55;15.55;;;8.63;;
48743;SDS011;34538;48.836;9.174;2023-01-28T08:47:21;16.00;;;8.45;;
48743;SDS011;34538;48.836;9.174;2023-01-28T08:49:50;12.07;;;7.40;;
48743;SDS011;34538;48.836;9.174;2023-01-28T08:52:16;12.75;;;7.28;;
48743;SDS011;34538;48.836;9.174;2023-01-28T08:54:43;14.43;;;7.57;;
48743;SDS011;34538;48.836;9.174;2023-01-28T08:57:10;14.63;;;7.20;;
48743;SDS011;34538;48.836;9.174;2023-01-28T08:59:37;12.60;;;7.38;;
48743;SDS011;34538;48.836;9.174;2023-01-28T09:02:11;11.63;;;7.10;;
48743;SDS011;34538;48.836;9.174;2023-01-28T09:04:38;13.45;;;7.28;;
48743;SDS011;34538;48.836;9.174;2023-01-28T09:07:07;13.68;;;7.55;;
48743;SDS011;34538;48.836;9.174;2023-01-28T09:09:34;14.00;;;6.75;;
48743;SDS011;34538;48.836;9.174;2023-01-28T09:12:01;13.73;;;7.55;;
48743;SDS011;34538;48.836;9.174;2023-01-28T09:14:28;13.35;;;7.25;;
48743;SDS011;34538;48.836;9.174;2023-01-28T09:16:55;13.10;;;7.60;;
48743;SDS011;34538;48.836;9.174;2023-01-28T09:19:22;14.23;;;7.40;;
48743;SDS011;34538;48.836;9.174;2023-01-28T09:21:49;13.52;;;7.28;;
48743;SDS011;34538;48.836;9.174;2023-01-28T09:24:17;17.65;;;8.93;;
48743;SDS011;34538;48.836;9.174;2023-01-28T09:26:44;12.77;;;6.88;;
48743;SDS011;34538;48.836;9.174;2023-01-28T09:29:10;14.75;;;7.38;;
48743;SDS011;34538;48.836;9.174;2023-01-28T09:31:38;12.68;;;7.10;;
48743;SDS011;34538;48.836;9.174;2023-01-28T09:34:05;14.40;;;6.65;;
48743;SDS011;34538;48.836;9.174;2023-01-28T09:36:32;14.45;;;7.45;;
48743;SDS011;34538;48.836;9.174;2023-01-28T09:38:59;14.02;;;7.75;;
48743;SDS011;34538;48.836;9.174;2023-01-28T09:41:28;16.15;;;7.22;;
48743;SDS011;34538;48.836;9.174;2023-01-28T09:44:05;15.85;;;7.57;;
48743;SDS011;34538;48.836;9.174;2023-01-28T09:46:35;15.18;;;8.20;;
48743;SDS011;34538;48.836;9.174;2023-01-28T09:49:08;14.20;;;7.70;;
48743;SDS011;34538;48.836;9.174;2023-01-28T09:51:44;15.77;;;8.13;;
48743;SDS011;34538;48.836;9.174;2023-01-28T09:54:19;15.75;;;8.32;;
48743;SDS011;34538;48.836;9.174;2023-01-28T09:56:55;14.48;;;8.18;;
48743;SDS011;34538;48.836;9.174;2023-01-28T09:59:29;14.40;;;7.85;;
48743;SDS011;34538;48.836;9.174;2023-01-28T10:02:02;19.58;;;10.40;;
48743;SDS011;34538;48.836;9.174;2023-01-28T10:04:47;15.25;;;8.43;;
48743;SDS011;34538;48.836;9.174;2023-01-28T10:07:26;17.05;;;8.82;;
48743;SDS011;34538;48.836;9.174;2023-01-28T10:10:01;14.55;;;8.45;;
48743;SDS011;34538;48.836;9.174;2023-01-28T10:12:41;22.15;;;13.05;;
48743;SDS011;34538;48.836;9.174;2023-01-28T10:15:37;24.65;;;13.27;;
48743;SDS011;34538;48.836;9.174;2023-01-28T10:18:15;17.73;;;9.80;;
48743;SDS011;34538;48.836;9.174;2023-01-28T10:20:47;21.50;;;11.10;;
48743;SDS011;34538;48.836;9.174;2023-01-28T10:23:17;22.73;;;13.23;;
48743;SDS011;34538;48.836;9.174;2023-01-28T10:25:48;20.23;;;10.73;;
48743;SDS011;34538;48.836;9.174;2023-01-28T10:28:19;16.42;;;8.20;;
48743;SDS011;34538;48.836;9.174;2023-01-28T10:30:49;13.38;;;7.60;;
48743;SDS011;34538;48.836;9.174;2023-01-28T10:33:17;13.00;;;7.93;;
48743;SDS011;34538;48.836;9.174;2023-01-28T10:35:48;15.52;;;8.50;;
48743;SDS011;34538;48.836;9.174;2023-01-28T10:38:16;18.83;;;8.90;;
48743;SDS011;34538;48.836;9.174;2023-01-28T10:43:14;14.82;;;7.93;;
48743;SDS011;34538;48.836;9.174;2023-01-28T10:45:46;18.42;;;8.40;;
48743;SDS011;34538;48.836;9.174;2023-01-28T10:48:20;14.25;;;7.85;;
48743;SDS011;34538;48.836;9.174;2023-01-28T10:50:50;14.38;;;7.82;;
48743;SDS011;34538;48.836;9.174;2023-01-28T10:53:18;16.25;;;8.13;;
48743;SDS011;34538;48.836;9.174;2023-01-28T10:55:47;13.85;;;7.95;;
48743;SDS011;34538;48.836;9.174;2023-01-28T10:58:17;19.00;;;8.38;;
48743;SDS011;34538;48.836;9.174;2023-01-28T11:00:50;13.88;;;7.63;;
48743;SDS011;34538;48.836;9.174;2023-01-28T11:03:18;17.85;;;9.73;;
48743;SDS011;34538;48.836;9.174;2023-01-28T11:05:49;15.57;;;8.73;;
48743;SDS011;34538;48.836;9.174;2023-01-28T11:08:17;15.27;;;8.98;;
48743;SDS011;34538;48.836;9.174;2023-01-28T11:10:45;12.57;;;7.40;;
48743;SDS011;34538;48.836;9.174;2023-01-28T11:13:17;23.83;;;12.90;;
48743;SDS011;34538;48.836;9.174;2023-01-28T11:15:47;41.47;;;20.27;;
48743;SDS011;34538;48.836;9.174;2023-01-28T11:18:16;14.90;;;8.55;;
48743;SDS011;34538;48.836;9.174;2023-01-28T11:20:48;17.25;;;8.85;;
48743;SDS011;34538;48.836;9.174;2023-01-28T11:23:17;16.17;;;8.30;;
48743;SDS011;34538;48.836;9.174;2023-01-28T11:25:47;15.05;;;8.45;;
48743;SDS011;34538;48.836;9.174;2023-01-28T11:28:16;15.32;;;7.88;;
48743;SDS011;34538;48.836;9.174;2023-01-28T11:30:49;15.63;;;8.07;;
48743;SDS011;34538;48.836;9.174;2023-01-28T11:33:20;15.95;;;8.65;;
48743;SDS011;34538;48.836;9.174;2023-01-28T11:35:53;16.70;;;9.93;;
48743;SDS011;34538;48.836;9.174;2023-01-28T11:38:22;19.92;;;10.13;;
48743;SDS011;34538;48.836;9.174;2023-01-28T11:40:49;15.95;;;7.72;;
48743;SDS011;34538;48.836;9.174;2023-01-28T11:43:17;14.63;;;8.32;;
48743;SDS011;34538;48.836;9.174;2023-01-28T11:45:47;15.40;;;8.23;;
48743;SDS011;34538;48.836;9.174;2023-01-28T11:48:23;16.95;;;8.15;;
48743;SDS011;34538;48.836;9.174;2023-01-28T11:50:59;15.88;;;8.27;;
48743;SDS011;34538;48.836;9.174;2023-01-28T11:53:38;18.63;;;8.65;;
48743;SDS011;34538;48.836;9.174;2023-01-28T11:56:14;15.85;;;8.50;;
48743;SDS011;34538;48.836;9.174;2023-01-28T11:58:59;17.20;;;8.23;;
48743;SDS011;34538;48.836;9.174;2023-01-28T12:01:39;15.18;;;8.35;;
48743;SDS011;34538;48.836;9.174;2023-01-28T12:04:17;17.52;;;8.80;;
48743;SDS011;34538;48.836;9.174;2023-01-28T12:06:51;18.00;;;9.13;;
48743;SDS011;34538;48.836;9.174;2023-01-28T12:09:27;17.20;;;8.27;;
48743;SDS011;34538;48.836;9.174;2023-01-28T12:12:10;16.58;;;9.18;;
48743;SDS011;34538;48.836;9.174;2023-01-28T12:15:04;18.38;;;9.38;;
48743;SDS011;34538;48.836;9.174;2023-01-28T12:18:05;15.55;;;7.22;;
48743;SDS011;34538;48.836;9.174;2023-01-28T12:20:41;14.93;;;7.55;;
48743;SDS011;34538;48.836;9.174;2023-01-28T12:23:27;15.65;;;7.85;;
48743;SDS011;34538;48.836;9.174;2023-01-28T12:26:06;18.25;;;8.07;;
48743;SDS011;34538;48.836;9.174;2023-01-28T12:28:40;13.07;;;6.72;;
48743;SDS011;34538;48.836;9.174;2023-01-28T12:34:35;13.23;;;6.97;;
48743;SDS011;34538;48.836;9.174;2023-01-28T12:37:26;15.25;;;7.35;;
48743;SDS011;34538;48.836;9.174;2023-01-28T12:40:05;15.77;;;7.47;;
48743;SDS011;34538;48.836;9.174;2023-01-28T12:42:43;18.35;;;9.38;;
48743;SDS011;34538;48.836;9.174;2023-01-28T12:45:16;15.15;;;8.25;;
48743;SDS011;34538;48.836;9.174;2023-01-28T12:47:48;20.77;;;10.95;;
48743;SDS011;34538;48.836;9.174;2023-01-28T12:50:22;17.13;;;9.65;;
48743;SDS011;34538;48.836;9.174;2023-01-28T12:52:53;16.95;;;9.20;;
48743;SDS011;34538;48.836;9.174;2023-01-28T12:55:27;16.88;;;8.88;;
48743;SDS011;34538;48.836;9.174;2023-01-28T12:58:02;20.50;;;9.15;;
48743;SDS011;34538;48.836;9.174;2023-01-28T13:00:33;16.90;;;7.53;;
48743;SDS011;34538;48.836;9.174;2023-01-28T13:05:38;13.13;;;6.57;;
48743;SDS011;34538;48.836;9.174;2023-01-28T13:08:10;11.85;;;6.72;;
48743;SDS011;34538;48.836;9.174;2023-01-28T13:10:41;12.85;;;6.38;;
48743;SDS011;34538;48.836;9.174;2023-01-28T13:13:12;13.98;;;6.82;;
48743;SDS011;34538;48.836;9.174;2023-01-28T13:15:44;11.35;;;6.10;;
48743;SDS011;34538;48.836;9.174;2023-01-28T13:20:57;11.70;;;6.50;;
48743;SDS011;34538;48.836;9.174;2023-01-28T13:23:25;11.82;;;6.60;;
48743;SDS011;34538;48.836;9.174;2023-01-28T13:26:07;12.65;;;5.90;;
48743;SDS011;34538;48.836;9.174;2023-01-28T13:28:36;14.15;;;6.95;;
48743;SDS011;34538;48.836;9.174;2023-01-28T13:31:03;14.65;;;6.82;;
48743;SDS011;34538;48.836;9.174;2023-01-28T13:33:33;13.52;;;7.47;;
48743;SDS011;34538;48.836;9.174;2023-01-28T13:36:04;12.38;;;6.50;;
48743;SDS011;34538;48.836;9.174;2023-01-28T13:38:58;24.40;;;10.82;;
48743;SDS011;34538;48.836;9.174;2023-01-28T13:41:35;16.92;;;7.50;;
48743;SDS011;34538;48.836;9.174;2023-01-28T13:44:03;15.55;;;7.45;;
48743;SDS011;34538;48.836;9.174;2023-01-28T13:46:43;13.27;;;6.85;;
48743;SDS011;34538;48.836;9.174;2023-01-28T13:49:11;13.18;;;6.85;;
48743;SDS011;34538;48.836;9.174;2023-01-28T13:51:46;12.75;;;7.18;;
48743;SDS011;34538;48.836;9.174;2023-01-28T13:54:21;14.00;;;7.10;;
48743;SDS011;34538;48.836;9.174;2023-01-28T13:56:56;12.70;;;6.90;;
48743;SDS011;34538;48.836;9.174;2023-01-28T13:59:42;12.93;;;6.22;;
48743;SDS011;34538;48.836;9.174;2023-01-28T14:02:24;12.18;;;6.35;;
48743;SDS011;34538;48.836;9.174;2023-01-28T14:05:27;12.32;;;6.10;;
48743;SDS011;34538;48.836;9.174;2023-01-28T14:11:27;12.80;;;6.40;;
48743;SDS011;34538;48.836;9.174;2023-01-28T14:17:22;10.63;;;5.82;;
48743;SDS011;34538;48.836;9.174;2023-01-28T14:19:56;11.70;;;6.00;;
48743;SDS011;34538;48.836;9.174;2023-01-28T14:22:23;10.65;;;6.07;;
48743;SDS011;34538;48.836;9.174;2023-01-28T14:24:51;9.95;;;5.80;;
48743;SDS011;34538;48.836;9.174;2023-01-28T14:27:21;10.90;;;5.60;;
48743;SDS011;34538;48.836;9.174;2023-01-28T14:29:59;11.57;;;6.57;;
48743;SDS011;34538;48.836;9.174;2023-01-28T14:35:04;10.20;;;5.72;;
48743;SDS011;34538;48.836;9.174;2023-01-28T14:37:34;9.07;;;5.55;;
48743;SDS011;34538;48.836;9.174;2023-01-28T14:40:02;8.82;;;5.20;;
48743;SDS011;34538;48.836;9.174;2023-01-28T14:42:34;11.02;;;6.18;;
48743;SDS011;34538;48.836;9.174;2023-01-28T14:45:06;8.50;;;5.07;;
48743;SDS011;34538;48.836;9.174;2023-01-28T14:47:47;8.87;;;5.03;;
48743;SDS011;34538;48.836;9.174;2023-01-28T14:50:37;9.07;;;5.32;;
48743;SDS011;34538;48.836;9.174;2023-01-28T14:53:20;9.57;;;5.35;;
48743;SDS011;34538;48.836;9.174;2023-01-28T14:56:15;9.25;;;5.25;;
48743;SDS011;34538;48.836;9.174;2023-01-28T14:58:55;11.68;;;6.57;;
48743;SDS011;34538;48.836;9.174;2023-01-28T15:01:28;10.18;;;5.78;;
48743;SDS011;34538;48.836;9.174;2023-01-28T15:03:56;11.23;;;6.13;;
48743;SDS011;34538;48.836;9.174;2023-01-28T15:06:23;7.70;;;4.60;;
48743;SDS011;34538;48.836;9.174;2023-01-28T15:09:04;8.93;;;4.63;;
48743;SDS011;34538;48.836;9.174;2023-01-28T15:11:32;7.82;;;4.50;;
48743;SDS011;34538;48.836;9.174;2023-01-28T15:14:04;7.88;;;4.85;;
48743;SDS011;34538;48.836;9.174;2023-01-28T15:16:38;6.15;;;3.80;;
48743;SDS011;34538;48.836;9.174;2023-01-28T15:19:05;8.30;;;4.70;;
48743;SDS011;34538;48.836;9.174;2023-01-28T15:21:33;8.00;;;4.05;;
48743;SDS011;34538;48.836;9.174;2023-01-28T15:24:02;8.07;;;4.47;;
48743;SDS011;34538;48.836;9.174;2023-01-28T15:26:29;7.22;;;3.97;;
48743;SDS011;34538;48.836;9.174;2023-01-28T15:28:58;7.90;;;4.35;;
48743;SDS011;34538;48.836;9.174;2023-01-28T15:31:27;7.70;;;4.60;;
48743;SDS011;34538;48.836;9.174;2023-01-28T15:33:55;9.05;;;4.53;;
48743;SDS011;34538;48.836;9.174;2023-01-28T15:36:23;9.38;;;4.95;;